createdAt,value
2019-02-02T00:01:08.936Z,0.68
2019-02-02T00:03:40.299Z,0.57
2019-02-02T00:06:08.924Z,0.70
2019-02-02T00:08:37.523Z,0.79
2019-02-02T00:11:06.180Z,0.74
2019-02-02T00:13:34.791Z,0.81
2019-02-02T00:16:03.721Z,0.70
2019-02-02T00:18:33.854Z,0.77
2019-02-02T00:21:04.053Z,0.84
2019-02-02T00:23:35.619Z,0.88
2019-02-02T00:26:04.562Z,0.90
2019-02-02T00:28:33.110Z,0.83
2019-02-02T00:31:03.236Z,0.92
2019-02-02T00:33:31.864Z,0.83
2019-02-02T00:36:00.619Z,0.74
2019-02-02T00:38:29.170Z,0.92
2019-02-02T00:40:57.766Z,0.94
2019-02-02T00:43:26.322Z,0.80
2019-02-02T00:45:54.921Z,0.84
2019-02-02T00:48:23.520Z,0.74
2019-02-02T00:50:52.091Z,0.82
2019-02-02T00:53:20.688Z,0.71
2019-02-02T00:55:49.242Z,0.73
2019-02-02T00:58:17.840Z,0.84
2019-02-02T01:00:46.431Z,0.75
2019-02-02T01:03:15.065Z,0.78
2019-02-02T01:05:43.965Z,0.70
2019-02-02T01:08:12.570Z,0.71
2019-02-02T01:10:44.220Z,0.87
2019-02-02T01:13:12.803Z,0.93
2019-02-02T01:15:41.499Z,0.83
2019-02-02T01:18:10.088Z,0.72
2019-02-02T01:20:39.148Z,0.75
2019-02-02T01:23:07.755Z,0.82
2019-02-02T01:25:36.310Z,0.86
2019-02-02T01:28:05.775Z,1.03
2019-02-02T01:30:34.514Z,1.09
2019-02-02T01:33:03.075Z,1.07
2019-02-02T01:35:33.216Z,0.97
2019-02-02T01:38:01.906Z,0.78
2019-02-02T01:40:30.462Z,0.64
2019-02-02T01:42:59.066Z,0.72
2019-02-02T01:45:28.900Z,0.63
2019-02-02T01:47:57.591Z,0.67
2019-02-02T01:50:27.630Z,0.56
2019-02-02T01:52:56.256Z,0.71
2019-02-02T01:55:24.995Z,0.70
2019-02-02T01:57:53.697Z,0.66
2019-02-02T02:00:24.972Z,0.59
2019-02-02T02:02:53.598Z,0.64
2019-02-02T02:05:22.291Z,0.74
2019-02-02T02:07:51.085Z,0.68
2019-02-02T02:10:20.742Z,0.72
2019-02-02T02:12:49.680Z,0.67
2019-02-02T02:15:19.476Z,0.68
2019-02-02T02:17:49.168Z,0.74
2019-02-02T02:20:19.501Z,0.79
2019-02-02T02:22:49.445Z,0.66
2019-02-02T02:25:19.340Z,0.55
2019-02-02T02:27:48.466Z,0.53
2019-02-02T02:30:18.857Z,0.59
2019-02-02T02:32:47.655Z,0.62
2019-02-02T02:35:16.394Z,0.66
2019-02-02T02:37:45.088Z,0.69
2019-02-02T02:40:17.055Z,0.75
2019-02-02T02:42:45.991Z,0.72
2019-02-02T02:45:15.031Z,0.72
2019-02-02T02:47:43.770Z,0.61
2019-02-02T02:50:14.673Z,0.72
2019-02-02T02:52:43.332Z,0.74
2019-02-02T02:55:13.826Z,0.75
2019-02-02T02:57:42.496Z,0.65
2019-02-02T03:00:19.752Z,0.65
2019-02-02T03:02:48.490Z,0.74
2019-02-02T03:05:18.225Z,0.65
2019-02-02T03:07:47.738Z,0.71
2019-02-02T03:10:18.563Z,0.68
2019-02-02T03:12:47.192Z,0.73
2019-02-02T03:15:17.384Z,0.81
2019-02-02T03:17:46.539Z,0.82
2019-02-02T03:20:18.383Z,0.80
2019-02-02T03:22:47.053Z,0.73
2019-02-02T03:25:24.333Z,0.74
2019-02-02T03:27:53.007Z,0.74
2019-02-02T03:30:22.726Z,0.75
2019-02-02T03:32:51.668Z,0.70
2019-02-02T03:35:22.766Z,0.75
2019-02-02T03:37:51.763Z,0.81
2019-02-02T03:40:24.716Z,0.72
2019-02-02T03:42:53.552Z,0.74
2019-02-02T03:45:24.563Z,0.86
2019-02-02T03:47:54.188Z,0.85
2019-02-02T03:50:25.786Z,0.79
2019-02-02T03:52:54.379Z,0.91
2019-02-02T03:55:23.057Z,0.94
2019-02-02T03:57:51.692Z,0.73
2019-02-02T04:00:22.312Z,0.73
2019-02-02T04:02:51.077Z,0.82
2019-02-02T04:05:22.014Z,0.72
2019-02-02T04:07:50.638Z,0.68
2019-02-02T04:10:19.260Z,0.75
2019-02-02T04:12:48.003Z,0.72
2019-02-02T04:15:18.095Z,0.78
2019-02-02T04:17:47.171Z,0.84
2019-02-02T04:20:17.807Z,0.89
2019-02-02T04:22:47.484Z,0.90
2019-02-02T04:25:16.589Z,0.93
2019-02-02T04:27:45.220Z,0.95
2019-02-02T04:30:16.901Z,0.99
2019-02-02T04:32:45.641Z,0.97
2019-02-02T04:35:14.309Z,0.90
2019-02-02T04:37:42.943Z,0.82
2019-02-02T04:40:14.153Z,0.86
2019-02-02T04:42:42.693Z,0.86
2019-02-02T04:45:16.332Z,0.89
2019-02-02T04:47:44.968Z,0.97
2019-02-02T04:50:21.444Z,0.90
2019-02-02T04:52:50.145Z,0.86
2019-02-02T04:55:20.039Z,0.97
2019-02-02T04:57:48.696Z,1.06
2019-02-02T05:00:20.340Z,0.91
2019-02-02T05:02:48.944Z,0.80
2019-02-02T05:05:18.586Z,0.70
2019-02-02T05:07:47.207Z,0.83
2019-02-02T05:10:20.744Z,0.82
2019-02-02T05:12:49.344Z,0.92
2019-02-02T05:15:18.016Z,0.85
2019-02-02T05:17:46.630Z,0.77
2019-02-02T05:20:19.585Z,0.87
2019-02-02T05:22:48.606Z,0.91
2019-02-02T05:25:17.723Z,0.82
2019-02-02T05:27:46.465Z,0.89
2019-02-02T05:30:26.701Z,0.92
2019-02-02T05:32:55.375Z,0.98
2019-02-02T05:35:24.000Z,0.98
2019-02-02T05:37:55.398Z,0.91
2019-02-02T05:40:24.663Z,0.95
2019-02-02T05:42:53.329Z,0.93
2019-02-02T05:45:23.797Z,0.89
2019-02-02T05:47:52.384Z,0.77
2019-02-02T05:50:23.190Z,0.85
2019-02-02T05:52:52.960Z,0.78
2019-02-02T05:55:23.681Z,0.92
2019-02-02T05:57:52.427Z,0.78
2019-02-02T06:03:18.055Z,0.83
2019-02-02T06:05:46.799Z,0.92
2019-02-02T06:08:15.362Z,0.90
2019-02-02T06:10:43.985Z,0.94
2019-02-02T06:13:12.659Z,0.95
2019-02-02T06:15:41.364Z,0.93
2019-02-02T06:18:10.093Z,0.95
2019-02-02T06:20:38.657Z,0.88
2019-02-02T06:23:07.263Z,0.84
2019-02-02T06:25:35.836Z,0.85
2019-02-02T06:28:04.725Z,0.80
2019-02-02T06:30:33.460Z,0.85
2019-02-02T06:33:02.015Z,0.85
2019-02-02T06:35:32.327Z,0.72
2019-02-02T06:38:00.947Z,0.75
2019-02-02T06:40:29.607Z,0.78
2019-02-02T06:42:58.190Z,0.74
2019-02-02T06:45:29.130Z,0.84
2019-02-02T06:47:57.754Z,0.96
2019-02-02T06:50:26.494Z,1.17
2019-02-02T06:52:55.053Z,1.02
2019-02-02T06:55:23.658Z,0.93
2019-02-02T06:57:52.223Z,0.80
2019-02-02T07:00:22.857Z,0.87
2019-02-02T07:02:52.000Z,0.78
2019-02-02T07:05:21.035Z,0.99
2019-02-02T07:07:49.637Z,1.08
2019-02-02T07:10:29.177Z,1.20
2019-02-02T07:12:57.738Z,1.08
2019-02-02T07:15:28.833Z,0.97
2019-02-02T07:17:57.586Z,0.97
2019-02-02T07:20:28.999Z,0.92
2019-02-02T07:22:57.718Z,0.90
2019-02-02T07:25:26.364Z,0.97
2019-02-02T07:27:55.031Z,1.05
2019-02-02T07:30:29.686Z,1.06
2019-02-02T07:32:55.268Z,1.00
2019-02-02T07:35:23.922Z,1.12
2019-02-02T07:37:52.482Z,1.18
2019-02-02T07:40:21.957Z,1.20
2019-02-02T07:42:51.026Z,1.14
2019-02-02T07:45:31.356Z,1.27
2019-02-02T07:48:02.237Z,1.36
2019-02-02T07:50:30.922Z,1.40
2019-02-02T07:53:01.507Z,1.36
2019-02-02T07:55:29.794Z,1.17
2019-02-02T07:57:58.403Z,1.05
2019-02-02T08:00:40.771Z,1.00
2019-02-02T08:03:04.471Z,1.00
2019-02-02T08:05:33.074Z,0.94
2019-02-02T08:08:03.238Z,0.97
2019-02-02T08:10:34.697Z,0.94
2019-02-02T08:13:03.318Z,0.99
2019-02-02T08:15:33.903Z,0.93
2019-02-02T08:18:04.811Z,1.05
2019-02-02T08:20:33.694Z,1.03
2019-02-02T08:23:04.446Z,1.14
2019-02-02T08:25:34.272Z,1.16
2019-02-02T08:28:03.148Z,1.29
2019-02-02T08:30:35.612Z,1.19
2019-02-02T08:33:03.732Z,1.26
2019-02-02T08:35:33.859Z,1.12
2019-02-02T08:38:04.990Z,1.08
2019-02-02T08:40:33.689Z,1.00
2019-02-02T08:43:02.239Z,1.08
2019-02-02T08:45:30.835Z,1.29
2019-02-02T08:48:01.278Z,1.19
2019-02-02T08:50:35.324Z,1.09
2019-02-02T08:53:04.245Z,1.15
2019-02-02T08:55:32.945Z,1.37
2019-02-02T08:58:01.530Z,1.39
2019-02-02T09:00:33.107Z,1.49
2019-02-02T09:03:03.230Z,1.43
2019-02-02T09:05:33.288Z,1.34
2019-02-02T09:08:05.349Z,1.43
2019-02-02T09:10:34.213Z,1.35
2019-02-02T09:13:02.821Z,1.39
2019-02-02T09:15:31.383Z,1.22
2019-02-02T09:18:06.119Z,1.38
2019-02-02T09:20:35.106Z,1.46
2019-02-02T09:23:06.611Z,1.68
2019-02-02T09:25:34.047Z,1.64
2019-02-02T09:28:05.704Z,1.53
2019-02-02T09:30:36.105Z,1.66
2019-02-02T09:33:05.445Z,1.71
2019-02-02T09:35:34.006Z,1.80
2019-02-02T09:38:05.902Z,1.75
2019-02-02T09:40:34.801Z,1.72
2019-02-02T09:43:03.430Z,1.59
2019-02-02T09:45:35.085Z,1.65
2019-02-02T09:48:03.691Z,1.61
2019-02-02T09:50:32.235Z,1.52
2019-02-02T09:53:02.579Z,1.40
2019-02-02T09:55:33.997Z,1.38
2019-02-02T09:58:08.797Z,1.63
2019-02-02T10:00:38.793Z,1.62
2019-02-02T10:03:07.907Z,1.76
2019-02-02T10:05:36.699Z,1.64
2019-02-02T10:08:05.341Z,1.73
2019-02-02T10:10:35.200Z,1.81
2019-02-02T10:13:04.085Z,1.95
2019-02-02T10:15:35.563Z,1.95
2019-02-02T10:18:04.708Z,2.05
2019-02-02T10:20:33.253Z,1.91
2019-02-02T10:23:04.869Z,1.82
2019-02-02T10:25:33.426Z,1.98
2019-02-02T10:28:05.008Z,1.92
2019-02-02T10:30:38.953Z,2.01
2019-02-02T10:33:08.051Z,2.16
2019-02-02T10:35:36.662Z,2.26
2019-02-02T10:38:05.907Z,2.27
2019-02-02T10:40:34.604Z,2.13
2019-02-02T10:43:03.776Z,2.24
2019-02-02T10:45:33.955Z,2.15
2019-02-02T10:48:03.569Z,1.99
2019-02-02T10:50:33.090Z,1.90
2019-02-02T10:53:02.677Z,1.72
2019-02-02T10:55:31.674Z,1.65
2019-02-02T10:58:03.478Z,1.61
2019-02-02T11:00:34.634Z,1.56
2019-02-02T11:03:03.275Z,1.67
2019-02-02T11:05:34.709Z,1.85
2019-02-02T11:08:04.610Z,1.96
2019-02-02T11:10:34.558Z,1.85
2019-02-02T11:13:03.243Z,1.72
2019-02-02T11:15:34.873Z,1.82
2019-02-02T11:18:03.549Z,1.92
2019-02-02T11:20:34.223Z,1.83
2019-02-02T11:23:03.193Z,1.78
2019-02-02T11:25:34.544Z,1.84
2019-02-02T11:28:03.353Z,1.87
2019-02-02T11:30:32.278Z,2.20
2019-02-02T11:33:00.975Z,2.20
2019-02-02T11:35:29.654Z,2.24
2019-02-02T11:37:58.397Z,2.26
2019-02-02T11:40:37.911Z,2.40
2019-02-02T11:43:12.873Z,2.43
2019-02-02T11:45:41.422Z,2.35
2019-02-02T11:48:10.000Z,2.30
2019-02-02T11:50:38.598Z,2.34
2019-02-02T11:53:07.404Z,2.20
2019-02-02T11:55:36.071Z,2.09
2019-02-02T11:58:04.832Z,1.98
2019-02-02T12:00:36.249Z,2.13
2019-02-02T12:03:05.149Z,2.02
2019-02-02T12:05:34.107Z,2.14
2019-02-02T12:08:05.476Z,1.83
2019-02-02T12:10:35.283Z,2.03
2019-02-02T12:13:04.463Z,2.05
2019-02-02T12:15:33.166Z,2.13
2019-02-02T12:18:03.286Z,2.17
2019-02-02T12:20:34.828Z,1.80
2019-02-02T12:23:03.513Z,1.74
2019-02-02T12:25:32.076Z,1.75
2019-02-02T12:28:02.424Z,1.59
2019-02-02T12:30:35.239Z,1.69
2019-02-02T12:33:04.516Z,1.83
2019-02-02T12:35:33.150Z,1.96
2019-02-02T12:38:03.284Z,1.68
2019-02-02T12:40:34.943Z,1.84
2019-02-02T12:43:03.544Z,1.82
2019-02-02T12:45:49.106Z,1.87
2019-02-02T12:48:17.802Z,2.00
2019-02-02T12:50:46.363Z,1.82
2019-02-02T12:53:15.007Z,1.56
2019-02-02T12:55:43.946Z,1.37
2019-02-02T12:58:12.713Z,1.40
2019-02-02T13:00:44.301Z,1.31
2019-02-02T13:03:11.837Z,1.62
2019-02-02T13:05:40.397Z,1.69
2019-02-02T13:08:09.214Z,1.72
2019-02-02T13:10:38.200Z,1.61
2019-02-02T13:13:07.715Z,1.62
2019-02-02T13:15:36.319Z,1.47
2019-02-02T13:18:05.020Z,1.45
2019-02-02T13:20:33.775Z,1.42
2019-02-02T13:23:03.985Z,1.39
2019-02-02T13:25:35.360Z,1.37
2019-02-02T13:28:04.035Z,1.50
2019-02-02T13:30:36.774Z,1.53
2019-02-02T13:33:06.103Z,1.24
2019-02-02T13:35:36.711Z,1.25
2019-02-02T13:38:05.824Z,1.38
2019-02-02T13:40:34.504Z,1.24
2019-02-02T13:43:03.482Z,1.20
2019-02-02T13:45:35.232Z,1.28
2019-02-02T13:48:04.120Z,1.36
2019-02-02T13:50:35.467Z,1.26
2019-02-02T13:53:04.953Z,1.25
2019-02-02T13:55:33.566Z,1.37
2019-02-02T13:58:02.142Z,1.51
2019-02-02T14:00:34.955Z,1.47
2019-02-02T14:03:04.011Z,1.32
2019-02-02T14:05:32.967Z,1.39
2019-02-02T14:08:02.011Z,1.46
2019-02-02T14:10:35.314Z,1.48
2019-02-02T14:13:03.970Z,1.28
2019-02-02T14:15:34.090Z,1.40
2019-02-02T14:18:05.993Z,1.55
2019-02-02T14:20:35.039Z,1.43
2019-02-02T14:23:03.770Z,1.31
2019-02-02T14:25:32.349Z,1.36
2019-02-02T14:28:00.906Z,1.35
2019-02-02T14:30:29.624Z,1.30
2019-02-02T14:32:58.212Z,1.33
2019-02-02T14:35:28.641Z,1.19
2019-02-02T14:37:57.378Z,1.08
2019-02-02T14:40:26.043Z,0.98
2019-02-02T14:42:54.680Z,1.15
2019-02-02T14:45:27.666Z,1.28
2019-02-02T14:47:56.193Z,1.31
2019-02-02T14:50:25.438Z,1.22
2019-02-02T14:52:57.012Z,1.12
2019-02-02T14:55:27.864Z,1.24
2019-02-02T14:57:56.491Z,1.27
2019-02-02T15:00:27.338Z,1.24
2019-02-02T15:02:56.378Z,1.08
2019-02-02T15:05:25.109Z,1.09
2019-02-02T15:07:53.696Z,1.15
2019-02-02T15:10:23.093Z,1.21
2019-02-02T15:12:51.836Z,1.07
2019-02-02T15:15:23.588Z,1.08
2019-02-02T15:17:52.256Z,0.99
2019-02-02T15:20:26.551Z,1.00
2019-02-02T15:22:55.151Z,1.05
2019-02-02T15:25:23.951Z,0.98
2019-02-02T15:27:52.692Z,0.88
2019-02-02T15:30:24.232Z,0.83
2019-02-02T15:32:53.024Z,0.85
2019-02-02T15:35:21.679Z,0.70
2019-02-02T15:37:50.417Z,0.84
2019-02-02T15:40:20.372Z,0.84
2019-02-02T15:42:49.075Z,0.65
2019-02-02T15:45:38.023Z,0.72
2019-02-02T15:48:06.763Z,0.69
2019-02-02T15:50:35.528Z,0.69
2019-02-02T15:53:04.440Z,0.71
2019-02-02T15:55:33.665Z,0.78
2019-02-02T15:58:03.826Z,0.74
2019-02-02T16:00:37.421Z,0.69
2019-02-02T16:03:06.378Z,0.64
2019-02-02T16:05:55.721Z,0.66
2019-02-02T16:08:24.444Z,0.60
2019-02-02T16:10:58.650Z,0.64
2019-02-02T16:13:27.751Z,0.67
2019-02-02T16:15:56.820Z,0.69
2019-02-02T16:18:25.404Z,0.73
2019-02-02T16:20:54.033Z,0.70
2019-02-02T16:23:22.634Z,0.85
2019-02-02T16:25:51.196Z,0.83
2019-02-02T16:28:19.920Z,0.76
2019-02-02T16:30:48.728Z,0.83
2019-02-02T16:33:17.295Z,0.65
2019-02-02T16:35:45.971Z,0.63
2019-02-02T16:38:14.620Z,0.76
2019-02-02T16:40:43.744Z,0.61
2019-02-02T16:43:12.488Z,0.48
2019-02-02T16:45:41.445Z,0.55
2019-02-02T16:48:10.058Z,0.63
2019-02-02T16:50:38.775Z,0.51
2019-02-02T16:53:07.375Z,0.59
2019-02-02T16:55:36.012Z,0.57
2019-02-02T16:58:05.223Z,0.59
2019-02-02T17:00:34.547Z,0.65
2019-02-02T17:03:03.224Z,0.72
2019-02-02T17:05:34.740Z,0.68
2019-02-02T17:08:03.431Z,0.64
2019-02-02T17:10:34.438Z,0.64
2019-02-02T17:13:03.109Z,0.71
2019-02-02T17:15:33.267Z,0.67
2019-02-02T17:18:02.163Z,0.63
2019-02-02T17:20:55.857Z,0.63
2019-02-02T17:23:24.465Z,0.65
2019-02-02T17:25:53.014Z,0.70
2019-02-02T17:28:21.748Z,0.62
2019-02-02T17:30:50.473Z,0.58
2019-02-02T17:33:19.167Z,0.62
2019-02-02T17:35:47.723Z,0.50
2019-02-02T17:38:16.324Z,0.53
2019-02-02T17:40:45.347Z,0.65
2019-02-02T17:43:14.239Z,0.55
2019-02-02T17:45:43.199Z,0.62
2019-02-02T17:48:13.254Z,0.60
2019-02-02T17:50:42.105Z,0.62
2019-02-02T17:53:10.782Z,0.60
2019-02-02T17:55:39.428Z,0.69
2019-02-02T17:58:08.031Z,0.73
2019-02-02T18:00:41.463Z,0.64
2019-02-02T18:03:10.018Z,0.65
2019-02-02T18:05:38.624Z,0.69
2019-02-02T18:08:07.342Z,0.67
2019-02-02T18:10:35.937Z,0.63
2019-02-02T18:13:05.042Z,0.61
2019-02-02T18:15:33.761Z,0.69
2019-02-02T18:18:04.138Z,0.78
2019-02-02T18:20:35.702Z,0.76
2019-02-02T18:23:04.951Z,0.73
2019-02-02T18:25:33.561Z,0.87
2019-02-02T18:28:02.286Z,0.83
2019-02-02T18:30:30.916Z,0.75
2019-02-02T18:32:59.589Z,0.81
2019-02-02T18:35:28.173Z,0.85
2019-02-02T18:37:56.769Z,0.93
2019-02-02T18:40:25.956Z,0.88
2019-02-02T18:42:54.744Z,0.87
2019-02-02T18:45:25.590Z,0.85
2019-02-02T18:47:54.321Z,0.83
2019-02-02T18:50:23.066Z,0.81
2019-02-02T18:52:53.702Z,0.86
2019-02-02T18:55:28.745Z,0.88
2019-02-02T18:57:57.456Z,0.88
2019-02-02T19:00:26.136Z,0.87
2019-02-02T19:02:55.246Z,0.76
2019-02-02T19:05:23.938Z,0.88
2019-02-02T19:07:53.021Z,0.89
2019-02-02T19:10:24.785Z,0.83
2019-02-02T19:12:53.370Z,0.81
2019-02-02T19:15:22.101Z,0.74
2019-02-02T19:17:51.181Z,0.91
2019-02-02T19:20:23.578Z,0.86
2019-02-02T19:22:57.228Z,0.88
2019-02-02T19:25:25.574Z,0.84
2019-02-02T19:27:54.167Z,0.88
2019-02-02T19:30:28.671Z,0.89
2019-02-02T19:32:57.425Z,0.93
2019-02-02T19:35:26.424Z,0.96
2019-02-02T19:37:55.102Z,0.96
2019-02-02T19:40:23.903Z,0.87
2019-02-02T19:42:52.592Z,0.81
2019-02-02T19:45:23.808Z,0.94
2019-02-02T19:47:52.883Z,0.90
2019-02-02T19:50:24.604Z,1.01
2019-02-02T19:52:53.721Z,0.95
2019-02-02T19:55:23.053Z,0.88
2019-02-02T19:57:52.129Z,0.85
2019-02-02T20:00:26.132Z,0.94
2019-02-02T20:02:55.558Z,0.89
2019-02-02T20:05:28.825Z,0.80
2019-02-02T20:07:54.687Z,0.75
2019-02-02T20:10:23.899Z,0.86
2019-02-02T20:12:56.193Z,0.97
2019-02-02T20:15:28.513Z,0.94
2019-02-02T20:18:08.882Z,0.85
2019-02-02T20:20:28.967Z,0.77
2019-02-02T20:22:57.908Z,0.71
2019-02-02T20:25:27.579Z,0.62
2019-02-02T20:27:56.310Z,0.75
2019-02-02T20:30:27.231Z,0.71
2019-02-02T20:32:56.534Z,0.62
2019-02-02T20:35:25.111Z,0.72
2019-02-02T20:37:53.969Z,0.61
2019-02-02T20:40:24.332Z,0.75
2019-02-02T20:42:53.393Z,0.80
2019-02-02T20:45:41.610Z,0.76
2019-02-02T20:48:10.630Z,0.76
2019-02-02T20:50:39.647Z,0.72
2019-02-02T20:53:08.819Z,0.67
2019-02-02T20:55:40.556Z,0.78
2019-02-02T20:58:09.364Z,0.74
2019-02-02T21:00:38.844Z,0.74
2019-02-02T21:03:07.593Z,0.81
2019-02-02T21:05:36.310Z,0.74
2019-02-02T21:08:05.582Z,0.73
2019-02-02T21:10:34.363Z,0.82
2019-02-02T21:13:24.203Z,0.83
2019-02-02T21:15:52.880Z,0.82
2019-02-02T21:18:21.457Z,0.81
2019-02-02T21:20:51.006Z,0.82
2019-02-02T21:23:19.739Z,0.81
2019-02-02T21:25:48.405Z,0.76
2019-02-02T21:28:16.990Z,0.67
2019-02-02T21:30:46.022Z,0.75
2019-02-02T21:33:14.877Z,0.75
2019-02-02T21:35:43.505Z,0.65
2019-02-02T21:38:12.143Z,0.75
2019-02-02T21:40:40.854Z,0.71
2019-02-02T21:43:09.730Z,0.78
2019-02-02T21:45:38.577Z,0.81
2019-02-02T21:48:07.388Z,0.78
2019-02-02T21:50:39.318Z,0.85
2019-02-02T21:53:08.522Z,0.88
2019-02-02T21:55:37.328Z,0.88
2019-02-02T21:58:06.952Z,0.82
2019-02-02T22:00:38.819Z,0.81
2019-02-02T22:03:10.039Z,0.81
2019-02-02T22:05:38.964Z,0.75
2019-02-02T22:08:08.026Z,0.81
2019-02-02T22:10:36.709Z,0.83
2019-02-02T22:13:06.531Z,0.85
2019-02-02T22:15:35.293Z,0.80
2019-02-02T22:18:04.019Z,0.75
2019-02-02T22:20:35.514Z,0.85
2019-02-02T22:23:04.222Z,0.74
2019-02-02T22:25:33.710Z,0.72
2019-02-02T22:28:02.358Z,0.71
2019-02-02T22:30:38.100Z,0.72
2019-02-02T22:33:06.906Z,0.86
2019-02-02T22:35:35.547Z,0.75
2019-02-02T22:38:04.392Z,0.71
2019-02-02T22:40:33.494Z,0.79
2019-02-02T22:43:02.435Z,0.76
2019-02-02T22:45:34.041Z,0.82
2019-02-02T22:48:06.467Z,0.81
2019-02-02T22:50:35.020Z,0.88
2019-02-02T22:53:04.102Z,0.81
2019-02-02T22:55:32.676Z,0.67
2019-02-02T22:58:01.285Z,0.74
2019-02-02T23:00:43.265Z,0.76
2019-02-02T23:03:24.415Z,0.69
2019-02-02T23:05:59.565Z,0.65
2019-02-02T23:08:40.207Z,0.68
2019-02-02T23:11:14.939Z,0.66
2019-02-02T23:13:58.498Z,0.57
2019-02-02T23:16:28.325Z,0.60
2019-02-02T23:18:57.070Z,0.73
2019-02-02T23:21:26.158Z,0.65
2019-02-02T23:23:55.101Z,0.57
2019-02-02T23:26:23.656Z,0.56
2019-02-02T23:28:52.283Z,0.66
2019-02-02T23:31:21.713Z,0.65
2019-02-02T23:33:50.282Z,0.65
2019-02-02T23:36:19.053Z,0.67
2019-02-02T23:38:47.602Z,0.75
2019-02-02T23:41:16.239Z,0.73
2019-02-02T23:43:44.824Z,0.84
2019-02-02T23:46:13.776Z,0.71
2019-02-02T23:48:42.377Z,0.81
2019-02-02T23:51:10.927Z,0.75
2019-02-02T23:53:39.681Z,0.77
2019-02-02T23:56:08.320Z,0.77
2019-02-02T23:58:36.922Z,0.81
